Time;durP1;ratioP1;P1;durP2;ratioP2;P2;SDS_P1;SDS_P2;PMS_P1;PMS_P2;Temp;Humidity;BMP_temperature;BMP_pressure;BME280_temperature;BME280_humidity;BME280_pressure;Samples;Min_cycle;Max_cycle;Signal;HPM_P1;HPM_P2
2024/01/15 00:01:53;;;;;;;14.82;7.05;;;;;;;;;;5036592;28;20029;-75
2024/01/15 00:04:18;;;;;;;10.18;5.28;;;;;;;;;;5038528;28;20036;-75
2024/01/15 00:06:44;;;;;;;8.35;4.55;;;;;;;;;;5040519;28;20029;-75
2024/01/15 00:09:09;;;;;;;13.73;6.88;;;;;;;;;;5041445;28;20068;-75
2024/01/15 00:11:35;;;;;;;6.63;3.75;;;;;;;;;;5042605;28;20385;-75
2024/01/15 00:14:00;;;;;;;10.82;5.93;;;;;;;;;;5037659;28;20501;-74
2024/01/15 00:16:25;;;;;;;12.18;6.45;;;;;;;;;;5042121;28;20017;-75
2024/01/15 00:18:51;;;;;;;12.48;5.68;;;;;;;;;;5042970;28;20118;-75
2024/01/15 00:21:16;;;;;;;11.05;5.68;;;;;;;;;;5039566;28;20029;-75
2024/01/15 00:23:44;;;;;;;10.18;4.57;;;;;;;;;;5043160;28;20064;-75
2024/01/15 00:26:10;;;;;;;14.80;6.93;;;;;;;;;;5038661;28;20023;-75
2024/01/15 00:28:36;;;;;;;11.95;6.40;;;;;;;;;;5043451;28;20017;-75
2024/01/15 00:31:02;;;;;;;4.30;2.38;;;;;;;;;;5037092;28;20028;-75
2024/01/15 00:33:27;;;;;;;11.55;6.53;;;;;;;;;;5043515;28;20028;-75
2024/01/15 00:35:53;;;;;;;10.88;6.05;;;;;;;;;;5040342;28;20539;-75
2024/01/15 00:38:18;;;;;;;9.95;5.07;;;;;;;;;;5043882;28;20481;-75
2024/01/15 00:40:43;;;;;;;11.35;5.78;;;;;;;;;;5038167;28;20032;-75
2024/01/15 00:43:09;;;;;;;11.90;5.88;;;;;;;;;;5044011;28;20020;-75
2024/01/15 00:45:34;;;;;;;10.77;5.68;;;;;;;;;;5037449;28;20083;-75
2024/01/15 00:48:01;;;;;;;10.32;5.35;;;;;;;;;;5036672;28;20036;-75
2024/01/15 00:50:26;;;;;;;7.78;4.05;;;;;;;;;;5041176;28;20466;-75
2024/01/15 00:52:51;;;;;;;7.32;3.80;;;;;;;;;;5041821;28;20057;-75
2024/01/15 00:55:17;;;;;;;11.85;6.28;;;;;;;;;;5047809;28;20029;-76
2024/01/15 00:57:42;;;;;;;7.93;4.57;;;;;;;;;;5046540;28;20504;-75
2024/01/15 01:00:09;;;;;;;9.13;5.10;;;;;;;;;;5047820;28;20500;-76
2024/01/15 01:02:34;;;;;;;9.07;4.57;;;;;;;;;;5042797;28;20047;-75
2024/01/15 01:04:59;;;;;;;8.90;4.70;;;;;;;;;;5045800;28;20620;-75
2024/01/15 01:07:25;;;;;;;9.85;5.07;;;;;;;;;;5042878;28;20481;-76
2024/01/15 01:09:51;;;;;;;7.63;4.15;;;;;;;;;;5044515;28;20025;-76
2024/01/15 01:12:16;;;;;;;6.60;4.38;;;;;;;;;;5043524;28;20509;-76
2024/01/15 01:14:42;;;;;;;7.70;4.20;;;;;;;;;;5046279;28;20035;-76
2024/01/15 01:17:07;;;;;;;5.72;4.07;;;;;;;;;;5044435;28;20116;-76
2024/01/15 01:19:33;;;;;;;6.20;3.53;;;;;;;;;;5043388;28;20017;-76
2024/01/15 01:21:58;;;;;;;6.78;3.13;;;;;;;;;;5046901;28;20136;-76
2024/01/15 01:24:23;;;;;;;6.53;4.25;;;;;;;;;;5040289;28;20033;-76
2024/01/15 01:26:49;;;;;;;7.50;4.50;;;;;;;;;;5042383;28;20039;-76
2024/01/15 01:29:14;;;;;;;6.47;4.40;;;;;;;;;;5035888;28;20508;-76
2024/01/15 01:31:44;;;;;;;4.85;2.10;;;;;;;;;;5041570;28;20044;-75
2024/01/15 01:34:10;;;;;;;7.53;3.95;;;;;;;;;;5044482;28;20108;-76
2024/01/15 01:36:35;;;;;;;6.93;4.53;;;;;;;;;;5045855;28;20124;-76
2024/01/15 01:39:00;;;;;;;8.40;4.38;;;;;;;;;;5045717;28;20025;-76
2024/01/15 01:41:26;;;;;;;6.22;3.38;;;;;;;;;;5039665;28;20042;-76
2024/01/15 01:43:51;;;;;;;10.43;4.90;;;;;;;;;;5041663;28;20480;-76
2024/01/15 01:46:17;;;;;;;7.28;4.10;;;;;;;;;;5045170;28;20082;-76
2024/01/15 01:48:43;;;;;;;6.38;3.35;;;;;;;;;;5042160;28;20075;-76
2024/01/15 01:51:09;;;;;;;5.22;3.33;;;;;;;;;;5044956;28;20029;-75
2024/01/15 01:53:37;;;;;;;3.15;1.98;;;;;;;;;;5044068;28;20017;-76
2024/01/15 01:56:03;;;;;;;7.15;4.63;;;;;;;;;;5043781;28;20016;-76
2024/01/15 01:58:30;;;;;;;6.35;4.22;;;;;;;;;;5045463;28;20148;-76
2024/01/15 02:00:56;;;;;;;8.57;4.32;;;;;;;;;;5044042;28;20060;-76
2024/01/15 02:03:22;;;;;;;6.40;3.67;;;;;;;;;;5040082;28;20031;-76
2024/01/15 02:05:49;;;;;;;5.57;3.55;;;;;;;;;;5045246;28;20025;-76
2024/01/15 02:08:14;;;;;;;9.75;4.60;;;;;;;;;;5044829;28;20556;-76
2024/01/15 02:10:40;;;;;;;3.53;2.17;;;;;;;;;;5045977;28;20025;-76
2024/01/15 02:13:05;;;;;;;7.10;3.58;;;;;;;;;;5041034;28;20023;-76
2024/01/15 02:15:31;;;;;;;6.20;3.38;;;;;;;;;;5042021;28;20033;-76
2024/01/15 02:18:01;;;;;;;4.95;3.03;;;;;;;;;;5036647;28;20103;-76
2024/01/15 02:20:26;;;;;;;6.40;3.60;;;;;;;;;;5038085;28;20108;-76
2024/01/15 02:22:52;;;;;;;6.68;3.42;;;;;;;;;;5043557;28;20120;-76
2024/01/15 02:25:18;;;;;;;6.13;3.45;;;;;;;;;;5039267;28;20477;-76
2024/01/15 02:27:44;;;;;;;6.65;3.00;;;;;;;;;;5040821;28;20029;-76
2024/01/15 02:30:12;;;;;;;6.63;3.50;;;;;;;;;;5042219;28;20830;-76
2024/01/15 02:32:38;;;;;;;5.82;3.30;;;;;;;;;;5043055;28;20016;-76
2024/01/15 02:35:04;;;;;;;5.60;3.60;;;;;;;;;;5037927;28;20041;-76
2024/01/15 02:37:29;;;;;;;5.70;3.22;;;;;;;;;;5035633;28;20457;-76
2024/01/15 02:39:55;;;;;;;3.90;2.10;;;;;;;;;;5043899;28;20021;-76
2024/01/15 02:42:20;;;;;;;2.97;2.17;;;;;;;;;;5043443;28;20025;-76
2024/01/15 02:44:45;;;;;;;6.18;3.63;;;;;;;;;;5044345;28;20025;-76
2024/01/15 02:47:11;;;;;;;8.57;4.00;;;;;;;;;;5034010;28;20036;-76
2024/01/15 02:49:36;;;;;;;2.88;1.58;;;;;;;;;;5044515;28;20025;-75
2024/01/15 02:52:02;;;;;;;4.00;3.05;;;;;;;;;;5043629;28;20013;-75
2024/01/15 02:54:27;;;;;;;2.35;1.50;;;;;;;;;;5044840;28;20025;-75
2024/01/15 02:56:53;;;;;;;5.72;3.38;;;;;;;;;;5040637;28;20567;-75
2024/01/15 02:59:18;;;;;;;9.75;3.78;;;;;;;;;;5043933;28;20085;-75
2024/01/15 03:01:43;;;;;;;6.35;3.85;;;;;;;;;;5041198;28;20112;-75
2024/01/15 03:04:09;;;;;;;2.83;2.35;;;;;;;;;;5043448;28;20060;-75
2024/01/15 03:06:34;;;;;;;5.45;3.10;;;;;;;;;;5042772;28;20539;-76
2024/01/15 03:08:59;;;;;;;4.05;2.75;;;;;;;;;;5041903;28;20056;-76
2024/01/15 03:11:25;;;;;;;6.28;3.03;;;;;;;;;;5044204;28;20021;-76
2024/01/15 03:13:50;;;;;;;7.55;3.67;;;;;;;;;;5043479;28;20603;-76
2024/01/15 03:16:16;;;;;;;8.95;3.33;;;;;;;;;;5042488;28;20033;-76
2024/01/15 03:18:41;;;;;;;7.82;3.47;;;;;;;;;;5033122;28;20044;-76
2024/01/15 03:21:06;;;;;;;6.97;2.92;;;;;;;;;;5042691;28;20029;-76
2024/01/15 03:23:32;;;;;;;4.75;3.17;;;;;;;;;;5044420;28;20078;-76
2024/01/15 03:25:57;;;;;;;4.65;2.58;;;;;;;;;;5040836;28;20020;-75
2024/01/15 03:28:22;;;;;;;4.45;2.75;;;;;;;;;;5041293;28;20017;-76
2024/01/15 03:30:48;;;;;;;4.97;3.15;;;;;;;;;;5039116;28;20087;-76
2024/01/15 03:33:13;;;;;;;8.07;3.80;;;;;;;;;;5037511;28;20024;-76
2024/01/15 03:35:38;;;;;;;3.65;1.88;;;;;;;;;;5031792;28;20051;-76
2024/01/15 03:38:04;;;;;;;6.82;3.58;;;;;;;;;;5035702;28;20119;-76
2024/01/15 03:40:29;;;;;;;5.38;2.70;;;;;;;;;;5042334;28;20122;-76
2024/01/15 03:42:54;;;;;;;8.55;3.38;;;;;;;;;;5042537;28;20531;-76
2024/01/15 03:45:20;;;;;;;8.43;3.53;;;;;;;;;;5041568;28;20573;-76
2024/01/15 03:47:45;;;;;;;5.32;2.75;;;;;;;;;;5029540;28;20021;-76
2024/01/15 03:50:10;;;;;;;4.63;2.50;;;;;;;;;;5041850;28;20044;-76
2024/01/15 03:52:36;;;;;;;6.25;2.88;;;;;;;;;;5039156;28;20036;-76
2024/01/15 03:55:01;;;;;;;7.80;3.50;;;;;;;;;;5038716;28;20021;-76
2024/01/15 03:57:27;;;;;;;3.13;2.30;;;;;;;;;;5040445;28;20100;-76
2024/01/15 03:59:52;;;;;;;2.10;1.70;;;;;;;;;;5032902;28;20024;-76
2024/01/15 04:02:17;;;;;;;4.35;2.20;;;;;;;;;;5035710;28;20065;-76
2024/01/15 04:04:43;;;;;;;7.18;3.13;;;;;;;;;;5040108;28;20052;-76
2024/01/15 04:07:11;;;;;;;5.78;2.70;;;;;;;;;;5037493;28;20029;-76
2024/01/15 04:09:36;;;;;;;7.47;3.47;;;;;;;;;;5044675;28;20017;-76
2024/01/15 04:12:02;;;;;;;6.47;3.33;;;;;;;;;;5042592;28;20005;-76
2024/01/15 04:14:28;;;;;;;4.88;2.97;;;;;;;;;;5040845;28;20771;-76
2024/01/15 04:16:53;;;;;;;9.57;3.10;;;;;;;;;;5041190;28;20039;-76
2024/01/15 04:19:19;;;;;;;4.95;2.92;;;;;;;;;;5044628;28;20029;-76
2024/01/15 04:21:44;;;;;;;4.47;2.33;;;;;;;;;;5043109;28;20057;-77
2024/01/15 04:24:09;;;;;;;1.98;1.35;;;;;;;;;;5038648;28;20030;-76
2024/01/15 04:26:35;;;;;;;7.90;3.85;;;;;;;;;;5043246;28;20028;-76
2024/01/15 04:29:00;;;;;;;5.53;2.25;;;;;;;;;;5046244;28;20024;-77
2024/01/15 04:31:29;;;;;;;5.40;2.67;;;;;;;;;;5047465;28;20412;-77
2024/01/15 04:33:54;;;;;;;4.78;3.03;;;;;;;;;;5035515;28;20108;-76
2024/01/15 04:36:19;;;;;;;7.57;3.30;;;;;;;;;;5046927;28;20120;-76
2024/01/15 04:38:45;;;;;;;2.70;2.22;;;;;;;;;;5036832;28;20021;-77
2024/01/15 04:41:13;;;;;;;5.45;3.13;;;;;;;;;;5047067;28;20619;-77
2024/01/15 04:43:39;;;;;;;10.23;3.20;;;;;;;;;;5047325;28;20571;-77
2024/01/15 04:46:06;;;;;;;5.38;3.03;;;;;;;;;;5044766;28;20040;-77
2024/01/15 04:48:31;;;;;;;5.47;2.17;;;;;;;;;;5044185;28;20048;-77
2024/01/15 04:50:57;;;;;;;2.45;1.20;;;;;;;;;;5046661;28;20063;-77
2024/01/15 04:53:22;;;;;;;7.55;3.55;;;;;;;;;;5046133;28;20067;-77
2024/01/15 04:55:47;;;;;;;9.02;3.40;;;;;;;;;;5046512;28;20098;-77
2024/01/15 04:58:13;;;;;;;7.22;3.35;;;;;;;;;;5046784;28;20112;-78
2024/01/15 05:00:39;;;;;;;8.82;3.10;;;;;;;;;;5041627;28;20057;-77
2024/01/15 05:03:04;;;;;;;3.03;2.25;;;;;;;;;;5040779;28;20036;-77
2024/01/15 05:05:29;;;;;;;7.07;3.00;;;;;;;;;;5046280;28;20031;-77
2024/01/15 05:07:55;;;;;;;7.53;3.08;;;;;;;;;;5042363;28;20021;-77
2024/01/15 05:10:20;;;;;;;3.58;2.33;;;;;;;;;;5046613;28;20853;-77
2024/01/15 05:12:45;;;;;;;2.15;1.50;;;;;;;;;;5048319;28;20039;-77
2024/01/15 05:15:11;;;;;;;7.43;3.08;;;;;;;;;;5039830;28;20029;-77
2024/01/15 05:17:36;;;;;;;8.50;3.63;;;;;;;;;;5038873;28;20021;-77
2024/01/15 05:20:03;;;;;;;3.42;1.10;;;;;;;;;;5043589;28;20025;-76
2024/01/15 05:22:28;;;;;;;10.15;3.20;;;;;;;;;;5046727;28;20032;-76
2024/01/15 05:24:54;;;;;;;4.78;1.38;;;;;;;;;;5042090;28;20021;-76
2024/01/15 05:27:19;;;;;;;5.40;2.75;;;;;;;;;;5040662;28;20029;-76
2024/01/15 05:29:44;;;;;;;5.90;2.28;;;;;;;;;;5045003;28;20029;-76
2024/01/15 05:32:10;;;;;;;8.68;2.78;;;;;;;;;;5041809;28;20025;-76
2024/01/15 05:34:35;;;;;;;7.82;3.80;;;;;;;;;;5043429;28;20029;-76
2024/01/15 05:37:00;;;;;;;3.05;1.63;;;;;;;;;;5045995;28;20025;-76
2024/01/15 05:39:26;;;;;;;7.72;2.72;;;;;;;;;;5042167;28;20016;-76
2024/01/15 05:41:51;;;;;;;6.47;2.47;;;;;;;;;;5042169;28;20112;-75
2024/01/15 05:44:17;;;;;;;6.32;2.72;;;;;;;;;;5046210;28;20449;-76
2024/01/15 05:46:42;;;;;;;3.97;2.30;;;;;;;;;;5043980;28;20031;-76
2024/01/15 05:49:08;;;;;;;6.35;2.80;;;;;;;;;;5041015;28;20086;-76
2024/01/15 05:51:33;;;;;;;4.65;2.75;;;;;;;;;;5044021;28;20029;-76
2024/01/15 05:53:59;;;;;;;8.48;2.92;;;;;;;;;;5042829;28;20099;-75
2024/01/15 05:56:24;;;;;;;6.30;2.53;;;;;;;;;;5042985;28;20021;-75
2024/01/15 05:58:50;;;;;;;6.50;3.30;;;;;;;;;;5037712;28;20040;-75
2024/01/15 06:01:15;;;;;;;8.65;3.28;;;;;;;;;;5030458;28;20107;-75
2024/01/15 06:03:41;;;;;;;7.43;2.83;;;;;;;;;;5044906;28;20074;-75
2024/01/15 06:06:08;;;;;;;2.75;1.92;;;;;;;;;;5032330;28;20531;-75
2024/01/15 06:08:33;;;;;;;7.40;3.40;;;;;;;;;;5038727;28;20024;-76
2024/01/15 06:10:58;;;;;;;5.55;3.20;;;;;;;;;;5041012;28;20033;-75
2024/01/15 06:13:24;;;;;;;5.55;2.17;;;;;;;;;;5042524;28;20017;-77
2024/01/15 06:15:49;;;;;;;6.97;2.85;;;;;;;;;;5031713;28;20090;-76
2024/01/15 06:18:14;;;;;;;5.45;2.40;;;;;;;;;;5042450;28;20032;-76
2024/01/15 06:20:40;;;;;;;4.35;2.80;;;;;;;;;;5044790;28;20507;-76
2024/01/15 06:23:05;;;;;;;4.20;2.15;;;;;;;;;;5043044;28;20056;-76
2024/01/15 06:25:30;;;;;;;5.85;2.58;;;;;;;;;;5038271;28;20029;-76
2024/01/15 06:27:56;;;;;;;8.15;3.42;;;;;;;;;;5041647;28;20021;-76
2024/01/15 06:30:21;;;;;;;8.38;3.13;;;;;;;;;;5043572;28;20029;-76
2024/01/15 06:32:47;;;;;;;8.15;3.35;;;;;;;;;;5045822;28;20027;-76
2024/01/15 06:35:12;;;;;;;6.03;3.20;;;;;;;;;;5041697;28;20022;-76
2024/01/15 06:37:37;;;;;;;4.25;2.45;;;;;;;;;;5039567;28;20017;-76
2024/01/15 06:40:03;;;;;;;5.57;2.50;;;;;;;;;;5045427;28;20025;-76
2024/01/15 06:42:28;;;;;;;9.48;4.40;;;;;;;;;;5041402;28;20535;-76
2024/01/15 06:44:54;;;;;;;8.13;3.15;;;;;;;;;;5042193;28;20021;-76
2024/01/15 06:47:19;;;;;;;9.10;3.10;;;;;;;;;;5042550;28;20029;-76
2024/01/15 06:49:44;;;;;;;7.35;3.33;;;;;;;;;;5038399;28;20021;-76
2024/01/15 06:52:11;;;;;;;6.88;3.55;;;;;;;;;;5043665;28;20040;-76
2024/01/15 06:54:36;;;;;;;9.23;3.50;;;;;;;;;;5042165;28;20207;-76
2024/01/15 06:57:02;;;;;;;8.77;3.00;;;;;;;;;;5039443;28;20045;-76
2024/01/15 06:59:27;;;;;;;2.83;2.03;;;;;;;;;;5040120;28;20051;-76
2024/01/15 07:01:53;;;;;;;8.35;4.25;;;;;;;;;;5043780;28;20082;-76
2024/01/15 07:04:18;;;;;;;2.88;2.15;;;;;;;;;;5039189;28;20690;-76
2024/01/15 07:06:43;;;;;;;7.88;4.88;;;;;;;;;;5044752;28;20024;-77
2024/01/15 07:09:10;;;;;;;11.13;4.03;;;;;;;;;;5041685;28;20476;-76
2024/01/15 07:11:36;;;;;;;6.43;2.97;;;;;;;;;;5045489;28;20063;-77
2024/01/15 07:14:01;;;;;;;8.07;3.65;;;;;;;;;;5041759;28;20366;-76
2024/01/15 07:16:26;;;;;;;8.13;3.88;;;;;;;;;;5037401;28;20037;-76
2024/01/15 07:18:52;;;;;;;3.83;2.33;;;;;;;;;;5039272;28;20021;-76
2024/01/15 07:21:17;;;;;;;7.63;3.20;;;;;;;;;;5036506;28;20021;-76
2024/01/15 07:23:42;;;;;;;6.97;3.35;;;;;;;;;;5042178;28;20025;-76
2024/01/15 07:26:08;;;;;;;6.63;2.38;;;;;;;;;;5035968;28;20541;-76
2024/01/15 07:28:33;;;;;;;4.65;2.63;;;;;;;;;;5035829;28;20028;-76
2024/01/15 07:31:01;;;;;;;6.63;3.47;;;;;;;;;;5038403;28;20083;-76
2024/01/15 07:33:26;;;;;;;5.28;3.22;;;;;;;;;;5037466;28;20024;-76
2024/01/15 07:35:51;;;;;;;5.90;3.55;;;;;;;;;;5042157;28;20017;-76
2024/01/15 07:38:17;;;;;;;7.90;3.95;;;;;;;;;;5036558;28;20028;-76
2024/01/15 07:40:42;;;;;;;9.07;3.72;;;;;;;;;;5042673;28;20027;-76
2024/01/15 07:43:07;;;;;;;5.78;2.75;;;;;;;;;;5042466;28;20155;-76
2024/01/15 07:48:58;;;;;;;3.85;2.03;;;;;;;;;;5040315;28;20604;-76
2024/01/15 07:51:24;;;;;;;5.32;3.47;;;;;;;;;;5027514;28;20090;-76
2024/01/15 07:53:50;;;;;;;10.25;4.95;;;;;;;;;;5028076;28;20025;-75
2024/01/15 07:56:15;;;;;;;7.93;4.25;;;;;;;;;;5039577;28;20036;-76
2024/01/15 07:58:41;;;;;;;4.55;2.22;;;;;;;;;;5037065;28;20105;-76
2024/01/15 08:01:07;;;;;;;7.72;3.78;;;;;;;;;;5037740;28;20052;-76
2024/01/15 08:03:32;;;;;;;7.53;4.80;;;;;;;;;;5035470;28;20037;-76
2024/01/15 08:05:59;;;;;;;9.07;4.25;;;;;;;;;;5038357;28;20021;-76
2024/01/15 08:08:25;;;;;;;8.68;5.35;;;;;;;;;;5039030;28;20041;-76
2024/01/15 08:10:51;;;;;;;6.30;3.45;;;;;;;;;;5035814;28;20056;-76
2024/01/15 08:13:17;;;;;;;5.40;2.80;;;;;;;;;;5040648;28;20025;-76
2024/01/15 08:15:42;;;;;;;8.35;4.28;;;;;;;;;;5035788;28;20066;-76
2024/01/15 08:18:07;;;;;;;7.43;3.40;;;;;;;;;;5030768;28;20033;-76
2024/01/15 08:20:33;;;;;;;10.65;3.67;;;;;;;;;;5032635;28;20028;-75
2024/01/15 08:22:58;;;;;;;4.20;2.05;;;;;;;;;;5030247;28;20048;-76
2024/01/15 08:25:24;;;;;;;8.52;4.05;;;;;;;;;;5039200;28;20032;-76
2024/01/15 08:27:51;;;;;;;4.97;2.85;;;;;;;;;;5037599;28;20020;-76
2024/01/15 08:30:18;;;;;;;7.78;4.35;;;;;;;;;;5039984;28;20047;-76
2024/01/15 08:32:44;;;;;;;7.63;3.85;;;;;;;;;;5040086;28;20047;-76
2024/01/15 08:35:09;;;;;;;6.88;4.07;;;;;;;;;;5038841;28;20025;-76
2024/01/15 08:37:35;;;;;;;7.85;3.97;;;;;;;;;;5039467;28;20029;-76
2024/01/15 08:40:00;;;;;;;8.60;3.65;;;;;;;;;;5038903;28;20028;-76
2024/01/15 08:42:26;;;;;;;8.90;4.20;;;;;;;;;;5039072;28;20041;-76
2024/01/15 08:44:51;;;;;;;6.72;2.50;;;;;;;;;;5036588;28;20083;-76
2024/01/15 08:47:16;;;;;;;8.00;3.70;;;;;;;;;;5037980;28;20464;-76
2024/01/15 08:49:44;;;;;;;3.97;2.28;;;;;;;;;;5030670;28;20569;-76
2024/01/15 08:52:09;;;;;;;8.18;3.30;;;;;;;;;;5029589;28;20106;-76
2024/01/15 08:54:35;;;;;;;8.40;4.20;;;;;;;;;;5035712;28;20747;-76
2024/01/15 08:57:00;;;;;;;7.72;3.30;;;;;;;;;;5037836;28;20551;-76
2024/01/15 08:59:25;;;;;;;6.38;3.15;;;;;;;;;;5033234;28;20511;-76
2024/01/15 09:01:56;;;;;;;6.07;3.60;;;;;;;;;;5038082;28;20033;-76
2024/01/15 09:04:23;;;;;;;7.82;3.85;;;;;;;;;;5035796;28;20056;-76
2024/01/15 09:06:48;;;;;;;6.15;3.42;;;;;;;;;;5037539;28;20048;-76
2024/01/15 09:09:14;;;;;;;3.97;2.22;;;;;;;;;;5039395;28;20033;-76
2024/01/15 09:11:40;;;;;;;4.10;2.13;;;;;;;;;;5040221;28;20048;-77
2024/01/15 09:14:06;;;;;;;2.63;1.30;;;;;;;;;;5038684;28;20029;-76
2024/01/15 09:16:31;;;;;;;5.82;3.30;;;;;;;;;;5037115;28;20086;-76
2024/01/15 09:18:57;;;;;;;7.80;3.45;;;;;;;;;;5041949;28;20337;-77
2024/01/15 09:21:24;;;;;;;7.30;3.22;;;;;;;;;;5033360;28;20048;-76
2024/01/15 09:23:50;;;;;;;8.60;3.60;;;;;;;;;;5039085;28;20025;-76
2024/01/15 09:26:15;;;;;;;6.95;3.83;;;;;;;;;;5036938;28;20106;-76
2024/01/15 09:28:41;;;;;;;7.28;3.90;;;;;;;;;;5042384;28;20035;-76
2024/01/15 09:31:06;;;;;;;11.20;3.92;;;;;;;;;;5040633;28;20548;-76
2024/01/15 09:33:31;;;;;;;8.50;4.05;;;;;;;;;;5042030;28;20623;-76
2024/01/15 09:35:57;;;;;;;8.98;4.15;;;;;;;;;;5036535;28;20370;-76
2024/01/15 09:38:23;;;;;;;5.82;3.53;;;;;;;;;;5040640;28;20017;-76
2024/01/15 09:40:49;;;;;;;6.68;2.80;;;;;;;;;;5034161;28;20083;-77
2024/01/15 09:43:16;;;;;;;7.57;3.20;;;;;;;;;;5037980;28;20017;-76
2024/01/15 09:45:43;;;;;;;5.40;3.22;;;;;;;;;;5043196;28;20064;-76
2024/01/15 09:48:08;;;;;;;5.63;1.83;;;;;;;;;;5041422;28;20029;-76
2024/01/15 09:50:34;;;;;;;8.80;4.20;;;;;;;;;;5037214;28;20083;-77
2024/01/15 09:52:59;;;;;;;5.65;3.05;;;;;;;;;;5039480;28;20027;-76
2024/01/15 09:55:26;;;;;;;9.02;4.10;;;;;;;;;;5036701;28;20105;-77
2024/01/15 09:57:54;;;;;;;6.20;2.95;;;;;;;;;;5042427;28;20017;-77
2024/01/15 10:00:21;;;;;;;3.80;2.28;;;;;;;;;;5039512;28;20028;-77
2024/01/15 10:02:46;;;;;;;8.20;3.95;;;;;;;;;;5059320;28;20029;-76
2024/01/15 10:05:12;;;;;;;8.60;3.50;;;;;;;;;;5036570;28;20031;-77
2024/01/15 10:07:38;;;;;;;7.13;3.58;;;;;;;;;;5044088;28;20033;-77
2024/01/15 10:10:04;;;;;;;8.77;4.00;;;;;;;;;;5040128;28;20036;-74
2024/01/15 10:12:29;;;;;;;7.95;3.78;;;;;;;;;;5044764;28;20029;-76
2024/01/15 10:14:56;;;;;;;9.80;4.07;;;;;;;;;;5045463;28;20021;-76
2024/01/15 10:17:21;;;;;;;5.95;2.63;;;;;;;;;;5037872;28;20025;-76
2024/01/15 10:19:47;;;;;;;3.72;2.28;;;;;;;;;;5037257;28;20031;-77
2024/01/15 10:22:14;;;;;;;9.55;4.35;;;;;;;;;;5033889;28;20036;-77
2024/01/15 10:24:40;;;;;;;4.90;2.83;;;;;;;;;;5040308;28;20552;-77
2024/01/15 10:27:07;;;;;;;10.45;4.55;;;;;;;;;;5038360;28;20028;-77
2024/01/15 10:29:33;;;;;;;7.63;4.45;;;;;;;;;;5040320;28;20382;-77
2024/01/15 10:31:59;;;;;;;7.53;4.15;;;;;;;;;;5039709;28;20023;-77
2024/01/15 10:34:25;;;;;;;5.47;2.70;;;;;;;;;;5041765;28;20477;-77
2024/01/15 10:36:55;;;;;;;6.38;3.60;;;;;;;;;;5039770;28;20032;-77
2024/01/15 10:39:21;;;;;;;7.80;3.88;;;;;;;;;;5038781;28;20044;-77
2024/01/15 10:41:47;;;;;;;8.38;4.30;;;;;;;;;;5040700;28;20017;-76
2024/01/15 10:44:12;;;;;;;7.88;4.60;;;;;;;;;;5039958;28;20036;-77
2024/01/15 10:46:39;;;;;;;9.30;4.65;;;;;;;;;;5042613;28;20033;-77
2024/01/15 10:49:04;;;;;;;5.20;3.00;;;;;;;;;;5038633;28;20547;-77
2024/01/15 10:51:30;;;;;;;7.05;3.47;;;;;;;;;;5035214;28;20037;-77
2024/01/15 10:53:57;;;;;;;7.13;3.65;;;;;;;;;;5035354;28;20031;-77
2024/01/15 10:56:23;;;;;;;6.00;2.65;;;;;;;;;;5042270;28;20107;-77
2024/01/15 10:58:50;;;;;;;7.22;3.38;;;;;;;;;;5037794;28;20024;-76
2024/01/15 11:01:16;;;;;;;5.22;3.50;;;;;;;;;;5038000;28;20060;-77
2024/01/15 11:03:43;;;;;;;4.53;2.90;;;;;;;;;;5038005;28;20028;-77
2024/01/15 11:06:19;;;;;;;7.80;4.03;;;;;;;;;;5037477;28;20034;-77
2024/01/15 11:08:52;;;;;;;3.60;2.30;;;;;;;;;;5038835;28;20036;-78
2024/01/15 11:11:18;;;;;;;4.32;2.30;;;;;;;;;;5039671;28;20104;-76
2024/01/15 11:13:46;;;;;;;6.68;2.88;;;;;;;;;;5040784;28;20097;-76
2024/01/15 11:16:13;;;;;;;5.40;2.67;;;;;;;;;;5035191;28;20448;-78
2024/01/15 11:18:43;;;;;;;4.70;2.15;;;;;;;;;;5035704;28;20074;-76
2024/01/15 11:21:17;;;;;;;6.18;2.85;;;;;;;;;;5036917;28;20017;-75
2024/01/15 11:23:46;;;;;;;4.10;2.22;;;;;;;;;;5048132;28;20028;-77
2024/01/15 11:26:37;;;;;;;4.38;2.42;;;;;;;;;;5040083;28;22385;-74
2024/01/15 11:29:07;;;;;;;5.22;2.40;;;;;;;;;;5043528;28;20025;-76
2024/01/15 11:31:38;;;;;;;3.67;2.22;;;;;;;;;;5040597;28;20159;-77
2024/01/15 11:34:05;;;;;;;8.00;3.20;;;;;;;;;;5041868;28;20075;-76
2024/01/15 11:36:49;;;;;;;6.22;2.97;;;;;;;;;;5041203;28;20665;-76
2024/01/15 11:39:27;;;;;;;5.15;2.72;;;;;;;;;;5042695;28;20028;-74
2024/01/15 11:41:55;;;;;;;4.78;2.40;;;;;;;;;;5045102;28;20033;-75
2024/01/15 11:44:21;;;;;;;7.35;3.70;;;;;;;;;;5044797;28;20040;-76
2024/01/15 11:47:04;;;;;;;7.05;3.00;;;;;;;;;;5043810;28;20037;-76
2024/01/15 11:49:32;;;;;;;5.63;3.03;;;;;;;;;;5045664;28;20021;-75
2024/01/15 11:52:00;;;;;;;7.07;2.92;;;;;;;;;;5037255;28;20418;-78
2024/01/15 11:54:28;;;;;;;3.40;1.90;;;;;;;;;;5041515;28;20531;-76
2024/01/15 11:56:55;;;;;;;8.45;4.47;;;;;;;;;;5047496;28;20039;-76
2024/01/15 11:59:20;;;;;;;4.10;2.15;;;;;;;;;;5045826;28;20094;-76
2024/01/15 12:01:45;;;;;;;7.95;3.92;;;;;;;;;;5050749;28;20033;-75
2024/01/15 12:04:11;;;;;;;3.35;1.30;;;;;;;;;;5043918;28;20025;-76
2024/01/15 12:06:36;;;;;;;6.18;2.83;;;;;;;;;;5047758;28;20483;-77
2024/01/15 12:09:08;;;;;;;4.93;3.03;;;;;;;;;;5038960;28;20020;-75
2024/01/15 12:11:36;;;;;;;4.60;2.53;;;;;;;;;;5046099;28;20071;-76
2024/01/15 12:14:01;;;;;;;8.32;3.00;;;;;;;;;;5042997;28;20111;-77
2024/01/15 12:16:27;;;;;;;5.57;2.38;;;;;;;;;;5046603;28;20134;-77
2024/01/15 12:18:52;;;;;;;4.85;1.02;;;;;;;;;;5046509;28;20442;-74
2024/01/15 12:21:18;;;;;;;3.45;1.80;;;;;;;;;;5037584;28;20416;-75
2024/01/15 12:23:47;;;;;;;4.78;2.70;;;;;;;;;;5042239;28;20077;-76
2024/01/15 12:26:14;;;;;;;3.72;2.40;;;;;;;;;;5039611;28;20171;-77
2024/01/15 12:28:39;;;;;;;4.30;2.88;;;;;;;;;;5036485;28;20104;-75
2024/01/15 12:31:05;;;;;;;6.90;2.70;;;;;;;;;;5040320;28;20128;-77
2024/01/15 12:33:30;;;;;;;5.70;2.35;;;;;;;;;;5043949;28;20021;-76
2024/01/15 12:35:56;;;;;;;3.05;1.65;;;;;;;;;;5039574;28;20033;-75
2024/01/15 12:38:21;;;;;;;6.93;2.38;;;;;;;;;;5044113;28;20025;-77
2024/01/15 12:40:47;;;;;;;4.82;2.58;;;;;;;;;;5042952;28;20107;-77
2024/01/15 12:43:12;;;;;;;3.72;1.15;;;;;;;;;;5045075;28;20028;-76
2024/01/15 12:45:37;;;;;;;2.80;1.90;;;;;;;;;;5045461;28;20029;-77
2024/01/15 12:48:06;;;;;;;2.50;1.75;;;;;;;;;;5037765;28;20024;-74
2024/01/15 12:50:33;;;;;;;4.97;2.63;;;;;;;;;;5043139;28;20029;-74
2024/01/15 12:52:59;;;;;;;4.40;2.17;;;;;;;;;;5060553;28;20021;-76
2024/01/15 12:55:25;;;;;;;1.08;1.02;;;;;;;;;;5058951;28;20024;-75
2024/01/15 12:57:54;;;;;;;3.38;1.58;;;;;;;;;;5040141;28;20025;-77
2024/01/15 13:00:19;;;;;;;3.35;2.25;;;;;;;;;;5047107;28;20025;-76
2024/01/15 13:02:45;;;;;;;5.45;3.28;;;;;;;;;;5043676;28;20027;-77
2024/01/15 13:05:11;;;;;;;4.30;2.20;;;;;;;;;;5045510;28;20017;-75
2024/01/15 13:07:37;;;;;;;6.43;2.88;;;;;;;;;;5045481;28;20032;-76
2024/01/15 13:10:02;;;;;;;6.05;3.28;;;;;;;;;;5046113;28;20029;-75
2024/01/15 13:12:28;;;;;;;4.43;3.42;;;;;;;;;;5048278;28;20020;-77
2024/01/15 13:14:53;;;;;;;3.20;2.33;;;;;;;;;;5039298;28;20078;-76
2024/01/15 13:17:20;;;;;;;2.13;0.77;;;;;;;;;;5042984;28;20397;-75
2024/01/15 13:19:46;;;;;;;3.28;2.05;;;;;;;;;;5038128;28;20032;-74
2024/01/15 13:22:13;;;;;;;7.47;3.33;;;;;;;;;;5037867;28;20435;-76
2024/01/15 13:24:39;;;;;;;3.90;2.78;;;;;;;;;;5042021;28;20468;-76
2024/01/15 13:27:05;;;;;;;4.90;2.05;;;;;;;;;;5040896;28;20025;-75
2024/01/15 13:29:31;;;;;;;4.65;2.28;;;;;;;;;;5037486;28;20025;-76
2024/01/15 13:31:57;;;;;;;3.83;2.55;;;;;;;;;;5046992;28;20025;-74
2024/01/15 13:34:23;;;;;;;6.10;3.00;;;;;;;;;;5044905;28;20053;-75
2024/01/15 13:36:49;;;;;;;5.40;3.53;;;;;;;;;;5049281;28;20078;-75
2024/01/15 13:39:19;;;;;;;5.65;3.30;;;;;;;;;;5043057;28;20027;-76
2024/01/15 13:45:07;;;;;;;;;;;;;;;;;;5025010;28;20070;-75
2024/01/15 13:47:32;;;;;;;0.85;0.82;;;;;;;;;;5044092;28;19909;-76
2024/01/15 13:49:58;;;;;;;3.17;1.88;;;;;;;;;;5029443;28;20509;-76
2024/01/15 13:52:24;;;;;;;2.25;1.38;;;;;;;;;;5000950;28;20018;-75
2024/01/15 13:54:49;;;;;;;4.32;3.00;;;;;;;;;;4987352;28;20672;-76
2024/01/15 13:57:15;;;;;;;1.27;0.55;;;;;;;;;;4993017;28;20018;-75
2024/01/15 13:59:40;;;;;;;6.97;2.60;;;;;;;;;;4992977;28;20125;-74
2024/01/15 14:02:06;;;;;;;6.95;2.47;;;;;;;;;;4994139;28;20168;-77
2024/01/15 14:04:31;;;;;;;2.92;2.03;;;;;;;;;;4991393;28;20019;-75
2024/01/15 14:06:56;;;;;;;3.85;2.45;;;;;;;;;;4989453;28;20041;-75
2024/01/15 14:09:22;;;;;;;7.20;2.50;;;;;;;;;;4982760;28;20034;-75
2024/01/15 14:11:48;;;;;;;3.25;2.03;;;;;;;;;;4984407;28;20032;-77
2024/01/15 14:14:14;;;;;;;4.90;3.00;;;;;;;;;;4984843;28;20062;-76
2024/01/15 14:16:39;;;;;;;4.45;2.35;;;;;;;;;;4983958;28;20026;-76
2024/01/15 14:22:27;;;;;;;3.95;2.40;;;;;;;;;;4963302;28;20122;-74
2024/01/15 14:24:52;;;;;;;4.25;2.78;;;;;;;;;;4984210;28;20148;-77
2024/01/15 14:27:17;;;;;;;3.28;2.08;;;;;;;;;;4994515;28;20018;-76
2024/01/15 14:29:43;;;;;;;5.20;2.72;;;;;;;;;;4996270;28;20022;-76
2024/01/15 14:32:08;;;;;;;12.52;6.28;;;;;;;;;;4985327;28;20117;-77
2024/01/15 14:34:37;;;;;;;6.97;3.35;;;;;;;;;;4985085;28;20049;-76
2024/01/15 14:37:02;;;;;;;4.03;2.33;;;;;;;;;;4982934;28;20025;-76
2024/01/15 14:39:27;;;;;;;8.23;3.78;;;;;;;;;;4997619;28;20026;-77
2024/01/15 14:41:53;;;;;;;4.07;2.50;;;;;;;;;;4993743;28;20486;-76
2024/01/15 14:44:18;;;;;;;5.68;2.38;;;;;;;;;;4985982;28;20022;-76
2024/01/15 14:46:44;;;;;;;2.17;0.98;;;;;;;;;;4990117;28;20143;-76